createdAt,value
2022-08-23T00:02:25.247Z,18.39
2022-08-23T00:04:56.458Z,18.40
2022-08-23T00:07:38.499Z,18.42
2022-08-23T00:10:06.474Z,18.41
2022-08-23T00:12:33.130Z,18.35
2022-08-23T00:14:59.650Z,18.29
2022-08-23T00:17:33.392Z,18.23
2022-08-23T00:20:02.451Z,18.22
2022-08-23T00:22:28.964Z,18.19
2022-08-23T00:24:55.612Z,18.16
2022-08-23T00:27:22.283Z,18.11
2022-08-23T00:29:52.081Z,18.02
2022-08-23T00:32:23.077Z,17.92
2022-08-23T00:34:50.657Z,17.80
2022-08-23T00:37:18.262Z,17.73
2022-08-23T00:39:47.645Z,17.67
2022-08-23T00:42:47.093Z,17.68
2022-08-23T00:45:36.306Z,17.68
2022-08-23T00:48:05.295Z,17.67
2022-08-23T00:50:50.707Z,17.67
2022-08-23T00:53:42.158Z,17.59
2022-08-23T00:56:12.333Z,17.57
2022-08-23T00:58:39.541Z,17.58
2022-08-23T01:01:07.351Z,17.64
2022-08-23T01:03:38.998Z,17.60
2022-08-23T01:06:40.214Z,17.54
2022-08-23T01:09:12.466Z,17.52
2022-08-23T01:12:00.839Z,17.52
2022-08-23T01:14:35.880Z,17.53
2022-08-23T01:17:12.783Z,17.56
2022-08-23T01:19:46.677Z,17.58
2022-08-23T01:22:24.982Z,17.57
2022-08-23T01:25:08.191Z,17.60
2022-08-23T01:27:36.598Z,17.60
2022-08-23T01:30:06.645Z,17.63
2022-08-23T01:32:40.392Z,17.62
2022-08-23T01:35:07.431Z,17.58
2022-08-23T01:37:34.401Z,17.54
2022-08-23T01:40:00.918Z,17.56
2022-08-23T01:42:27.661Z,17.59
2022-08-23T01:44:54.308Z,17.48
2022-08-23T01:47:22.979Z,17.43
2022-08-23T01:49:49.459Z,17.40
2022-08-23T01:52:16.045Z,17.43
2022-08-23T01:54:43.394Z,17.45
2022-08-23T01:57:11.114Z,17.38
2022-08-23T01:59:38.568Z,17.41
2022-08-23T02:02:05.291Z,17.39
2022-08-23T02:04:31.944Z,17.43
2022-08-23T02:06:58.422Z,17.43
2022-08-23T02:09:25.548Z,17.38
2022-08-23T02:11:52.329Z,17.37
2022-08-23T02:14:20.834Z,17.33
2022-08-23T02:17:02.854Z,17.27
2022-08-23T02:19:31.833Z,17.28
2022-08-23T02:21:58.461Z,17.30
2022-08-23T02:24:26.198Z,17.24
2022-08-23T02:26:57.115Z,17.20
2022-08-23T02:29:25.194Z,17.12
2022-08-23T02:31:52.609Z,16.96
2022-08-23T02:34:20.137Z,16.94
2022-08-23T02:36:47.627Z,16.94
2022-08-23T02:39:15.661Z,16.91
2022-08-23T02:41:42.898Z,16.82
2022-08-23T02:44:11.184Z,16.86
2022-08-23T02:46:38.555Z,16.85
2022-08-23T02:49:05.716Z,16.84
2022-08-23T02:51:32.424Z,16.80
2022-08-23T02:53:59.062Z,16.73
2022-08-23T02:56:25.791Z,16.71
2022-08-23T02:58:54.680Z,16.71
2022-08-23T03:01:28.657Z,16.71
2022-08-23T03:03:56.592Z,16.75
2022-08-23T03:06:25.782Z,16.75
2022-08-23T03:08:54.355Z,16.76
2022-08-23T03:11:22.434Z,16.83
2022-08-23T03:13:49.682Z,16.88
2022-08-23T03:16:17.173Z,16.85
2022-08-23T03:18:43.990Z,16.85
2022-08-23T03:21:11.240Z,16.83
2022-08-23T03:23:39.392Z,16.81
2022-08-23T03:26:08.478Z,16.76
2022-08-23T03:28:37.320Z,16.78
2022-08-23T03:31:04.488Z,16.79
2022-08-23T03:33:31.018Z,16.88
2022-08-23T03:36:02.401Z,16.96
2022-08-23T03:38:29.033Z,17.06
2022-08-23T03:40:55.668Z,17.12
2022-08-23T03:43:22.557Z,17.23
2022-08-23T03:45:49.382Z,17.32
2022-08-23T03:48:16.662Z,17.36
2022-08-23T03:50:44.128Z,17.42
2022-08-23T03:53:12.255Z,17.43
2022-08-23T03:55:42.499Z,17.52
2022-08-23T03:58:09.799Z,17.54
2022-08-23T04:00:36.367Z,17.60
2022-08-23T04:03:03.345Z,17.58
2022-08-23T04:05:29.906Z,17.60
2022-08-23T04:07:56.430Z,17.62
2022-08-23T04:10:23.325Z,17.59
2022-08-23T04:12:50.015Z,17.62
2022-08-23T04:15:16.710Z,17.63
2022-08-23T04:17:43.359Z,17.66
2022-08-23T04:20:10.052Z,17.67
2022-08-23T04:22:36.669Z,17.65
2022-08-23T04:25:04.725Z,17.70
2022-08-23T04:27:42.820Z,17.77
2022-08-23T04:30:09.717Z,17.81
2022-08-23T04:32:41.003Z,17.84
2022-08-23T04:35:10.083Z,17.84
2022-08-23T04:37:36.740Z,17.80
2022-08-23T04:40:23.469Z,17.81
2022-08-23T04:42:49.999Z,17.78
2022-08-23T04:45:16.573Z,17.85
2022-08-23T04:47:44.840Z,17.87
2022-08-23T04:50:11.523Z,17.88
2022-08-23T04:52:38.077Z,17.82
2022-08-23T04:55:05.115Z,17.84
2022-08-23T04:57:31.829Z,17.88
2022-08-23T04:59:58.336Z,17.91
2022-08-23T05:02:24.842Z,17.88
2022-08-23T05:04:51.356Z,17.86
2022-08-23T05:07:17.827Z,17.88
2022-08-23T05:09:44.425Z,17.89
2022-08-23T05:12:11.359Z,17.90
2022-08-23T05:14:38.152Z,17.95
2022-08-23T05:17:24.300Z,18.01
2022-08-23T05:19:50.784Z,18.00
2022-08-23T05:22:17.457Z,17.96
2022-08-23T05:24:44.057Z,17.96
2022-08-23T05:27:13.681Z,18.00
2022-08-23T05:29:40.618Z,18.05
2022-08-23T05:32:07.226Z,18.12
2022-08-23T05:34:33.920Z,18.12
2022-08-23T05:37:00.672Z,18.16
2022-08-23T05:39:36.730Z,18.25
2022-08-23T05:42:05.843Z,18.35
2022-08-23T05:44:36.516Z,18.38
2022-08-23T05:47:10.677Z,18.39
2022-08-23T05:49:38.967Z,18.41
2022-08-23T05:52:07.847Z,18.53
2022-08-23T05:54:35.632Z,18.59
2022-08-23T05:57:05.587Z,18.66
2022-08-23T05:59:32.079Z,18.71
2022-08-23T06:01:58.857Z,18.79
2022-08-23T06:04:25.464Z,18.91
2022-08-23T06:06:52.206Z,18.96
2022-08-23T06:09:19.501Z,19.01
2022-08-23T06:11:48.023Z,19.09
2022-08-23T06:14:15.436Z,19.20
2022-08-23T06:16:46.616Z,19.29
2022-08-23T06:19:14.592Z,19.38
2022-08-23T06:21:42.537Z,19.47
2022-08-23T06:24:09.979Z,19.55
2022-08-23T06:26:45.400Z,19.63
2022-08-23T06:29:17.459Z,19.74
2022-08-23T06:31:49.027Z,19.79
2022-08-23T06:34:18.477Z,19.89
2022-08-23T06:37:32.987Z,19.95
2022-08-23T06:40:02.380Z,19.96
2022-08-23T06:43:14.103Z,19.98
2022-08-23T06:46:00.989Z,20.05
2022-08-23T06:49:15.402Z,20.13
2022-08-23T06:52:05.378Z,20.18
2022-08-23T06:57:23.447Z,20.18
2022-08-23T06:59:50.184Z,20.24
2022-08-23T07:02:17.228Z,20.31
2022-08-23T07:04:43.979Z,20.37
2022-08-23T07:07:12.135Z,20.44
2022-08-23T07:09:40.158Z,20.45
2022-08-23T07:12:06.984Z,20.53
2022-08-23T07:14:33.980Z,20.53
2022-08-23T07:17:03.449Z,20.56
2022-08-23T07:19:33.056Z,20.63
2022-08-23T07:22:00.659Z,20.71
2022-08-23T07:24:32.316Z,20.78
2022-08-23T07:27:01.397Z,20.81
2022-08-23T07:29:28.618Z,20.90
2022-08-23T07:31:56.209Z,21.01
2022-08-23T07:34:23.488Z,21.13
2022-08-23T07:36:51.380Z,21.20
2022-08-23T07:39:19.001Z,21.32
2022-08-23T07:41:45.610Z,21.49
2022-08-23T07:44:15.087Z,21.60
2022-08-23T07:46:47.343Z,21.67
2022-08-23T07:49:15.234Z,21.78
2022-08-23T07:51:46.395Z,21.87
2022-08-23T07:54:12.933Z,21.99
2022-08-23T07:56:40.653Z,22.08
2022-08-23T08:10:13.907Z,22.71
2022-08-23T08:19:29.740Z,23.17
2022-08-23T08:22:13.355Z,23.27
2022-08-23T08:32:30.917Z,23.73
2022-08-23T08:34:57.355Z,23.91
2022-08-23T08:37:24.482Z,24.15
2022-08-23T08:39:52.046Z,24.42
2022-08-23T08:42:39.132Z,24.51
2022-08-23T08:45:10.695Z,24.57
2022-08-23T08:47:49.651Z,24.55
2022-08-23T08:50:26.478Z,24.62
2022-08-23T08:53:00.857Z,24.68
2022-08-23T08:55:36.673Z,24.74
2022-08-23T09:10:10.659Z,25.29
2022-08-23T09:22:43.130Z,25.95
2022-08-23T09:25:11.362Z,26.04
2022-08-23T09:27:40.057Z,26.18
2022-08-23T09:30:07.648Z,26.38
2022-08-23T09:32:39.546Z,26.51
2022-08-23T09:35:25.874Z,26.54
2022-08-23T09:38:03.684Z,26.58
2022-08-23T09:40:38.807Z,26.66
2022-08-23T09:43:26.275Z,26.73
2022-08-23T09:46:00.042Z,26.66
2022-08-23T09:48:32.885Z,26.74
2022-08-23T09:51:16.752Z,26.94
2022-08-23T09:53:50.036Z,27.15
2022-08-23T09:56:45.314Z,27.23
2022-08-23T09:59:45.953Z,27.37
2022-08-23T10:02:21.986Z,27.46
2022-08-23T10:05:29.241Z,27.54
2022-08-23T10:08:03.615Z,27.64
2022-08-23T10:10:51.068Z,27.81
2022-08-23T10:13:28.122Z,27.98
2022-08-23T10:16:34.252Z,27.97
2022-08-23T10:19:18.725Z,28.13
2022-08-23T10:22:13.013Z,28.13
2022-08-23T10:25:04.192Z,28.23
2022-08-23T10:28:24.630Z,28.32
2022-08-23T10:30:56.307Z,28.41
2022-08-23T10:33:48.289Z,28.64
2022-08-23T10:36:46.219Z,28.64
2022-08-23T10:39:47.083Z,28.69
2022-08-23T10:42:41.304Z,28.47
2022-08-23T10:45:25.428Z,28.60
2022-08-23T10:48:09.818Z,28.90
2022-08-23T10:50:55.690Z,29.11
2022-08-23T10:53:34.632Z,29.22
2022-08-23T10:56:41.514Z,29.44
2022-08-23T10:59:21.074Z,29.42
2022-08-23T11:01:58.447Z,29.57
2022-08-23T11:04:36.101Z,29.62
2022-08-23T11:07:29.615Z,29.78
2022-08-23T11:10:30.598Z,29.97
2022-08-23T11:13:07.055Z,30.08
2022-08-23T11:16:12.151Z,29.96
2022-08-23T11:18:47.350Z,30.05
2022-08-23T11:21:33.740Z,30.30
2022-08-23T11:24:04.972Z,30.43
2022-08-23T11:26:40.642Z,30.59
2022-08-23T11:29:10.208Z,30.63
2022-08-23T11:31:42.011Z,30.63
2022-08-23T11:34:29.745Z,30.58
2022-08-23T11:37:23.460Z,30.53
2022-08-23T11:40:00.218Z,30.68
2022-08-23T11:42:50.223Z,30.90
2022-08-23T11:45:30.179Z,30.92
2022-08-23T11:48:35.699Z,31.28
2022-08-23T11:51:14.941Z,31.35
2022-08-23T11:53:49.459Z,31.26
2022-08-23T11:56:46.423Z,30.99
2022-08-23T11:59:41.829Z,30.78
2022-08-23T12:02:48.187Z,30.96
2022-08-23T12:05:44.510Z,31.18
2022-08-23T12:08:18.064Z,31.54
2022-08-23T12:10:45.739Z,31.61
2022-08-23T12:13:23.268Z,31.21
2022-08-23T12:16:17.775Z,30.78
2022-08-23T12:18:48.388Z,30.55
2022-08-23T12:21:21.942Z,31.06
2022-08-23T12:23:53.342Z,31.50
2022-08-23T12:26:28.830Z,31.67
2022-08-23T12:29:41.315Z,31.16
2022-08-23T12:32:48.048Z,31.09
2022-08-23T12:35:40.920Z,31.33
2022-08-23T12:38:34.436Z,31.14
2022-08-23T12:41:34.704Z,30.90
2022-08-23T12:44:10.311Z,31.19
2022-08-23T12:46:51.914Z,31.22
2022-08-23T12:49:36.980Z,31.30
2022-08-23T12:52:11.033Z,31.57
2022-08-23T12:54:55.327Z,31.85
2022-08-23T12:57:36.731Z,31.95
2022-08-23T13:00:17.107Z,32.13
2022-08-23T13:03:13.405Z,31.78
2022-08-23T13:05:48.431Z,31.29
2022-08-23T13:08:34.131Z,31.24
2022-08-23T13:11:07.786Z,31.32
2022-08-23T13:13:42.807Z,31.64
2022-08-23T13:16:32.340Z,32.25
2022-08-23T13:19:22.704Z,32.44
2022-08-23T13:22:22.544Z,32.77
2022-08-23T13:27:58.220Z,32.79
2022-08-23T13:30:30.144Z,32.62
2022-08-23T13:33:09.543Z,32.25
2022-08-23T13:35:58.643Z,32.24
2022-08-23T13:38:31.750Z,32.22
2022-08-23T13:41:12.151Z,32.25
2022-08-23T13:43:47.360Z,31.83
2022-08-23T13:46:31.565Z,31.47
2022-08-23T13:49:07.194Z,31.75
2022-08-23T13:51:38.828Z,32.36
2022-08-23T13:54:13.594Z,32.38
2022-08-23T13:56:53.401Z,32.17
2022-08-23T13:59:31.573Z,32.17
2022-08-23T14:02:07.527Z,32.18
2022-08-23T14:04:35.930Z,32.61
2022-08-23T14:07:04.342Z,32.54
2022-08-23T14:09:35.800Z,32.55
2022-08-23T14:12:18.030Z,32.93
2022-08-23T14:14:57.965Z,33.12
2022-08-23T14:17:27.861Z,33.36
2022-08-23T14:23:11.511Z,34.19
2022-08-23T14:25:49.784Z,34.21
2022-08-23T14:28:27.327Z,34.31
2022-08-23T14:30:58.580Z,33.99
2022-08-23T14:33:39.066Z,34.12
2022-08-23T14:36:15.071Z,34.69
2022-08-23T14:38:58.648Z,34.90
2022-08-23T14:41:31.255Z,35.22
2022-08-23T14:43:58.845Z,35.05
2022-08-23T14:46:36.207Z,34.79
2022-08-23T14:49:06.593Z,34.52
2022-08-23T14:51:43.180Z,34.41
2022-08-23T14:54:28.382Z,34.41
2022-08-23T14:56:55.589Z,34.51
2022-08-23T14:59:29.265Z,34.59
2022-08-23T15:02:01.421Z,35.01
2022-08-23T15:04:35.147Z,35.13
2022-08-23T15:07:18.047Z,35.19
2022-08-23T15:09:59.418Z,34.94
2022-08-23T15:15:25.712Z,35.46
2022-08-23T15:18:12.317Z,35.93
2022-08-23T15:20:47.440Z,35.60
2022-08-23T15:23:16.204Z,34.93
2022-08-23T15:25:44.601Z,34.35
2022-08-23T15:28:15.945Z,33.71
2022-08-23T15:30:45.306Z,33.31
2022-08-23T15:33:27.131Z,33.25
2022-08-23T15:35:59.623Z,33.77
2022-08-23T15:38:28.490Z,34.34
2022-08-23T15:41:01.895Z,34.82
2022-08-23T15:43:35.001Z,34.59
2022-08-23T15:46:16.379Z,34.49
2022-08-23T15:48:58.672Z,34.14
2022-08-23T15:51:27.233Z,34.22
2022-08-23T15:54:01.455Z,34.05
2022-08-23T15:56:56.792Z,34.09
2022-08-23T15:59:24.609Z,34.31
2022-08-23T16:02:00.798Z,34.61
2022-08-23T16:04:32.578Z,34.89
2022-08-23T16:07:10.241Z,34.86
2022-08-23T16:09:41.490Z,34.93
2022-08-23T16:12:10.212Z,35.10
2022-08-23T16:14:44.978Z,34.61
2022-08-23T16:17:22.182Z,33.68
2022-08-23T16:19:54.776Z,33.06
2022-08-23T16:22:24.696Z,32.98
2022-08-23T16:24:55.654Z,33.43
2022-08-23T16:27:32.691Z,34.12
2022-08-23T16:30:00.292Z,34.17
2022-08-23T16:32:31.656Z,33.74
2022-08-23T16:35:07.140Z,33.42
2022-08-23T16:37:36.805Z,33.19
2022-08-23T16:40:09.554Z,32.71
2022-08-23T16:42:49.991Z,32.83
2022-08-23T16:45:25.877Z,33.30
2022-08-23T16:48:00.217Z,33.91
2022-08-23T16:50:37.901Z,34.56
2022-08-23T16:53:12.256Z,34.89
2022-08-23T16:55:44.002Z,35.02
2022-08-23T16:58:11.905Z,34.91
2022-08-23T17:00:39.772Z,34.98
2022-08-23T17:03:15.491Z,35.20
2022-08-23T17:05:55.360Z,35.01
2022-08-23T17:08:23.470Z,34.37
2022-08-23T17:11:01.135Z,33.88
2022-08-23T17:13:30.882Z,33.51
2022-08-23T17:16:05.127Z,33.04
2022-08-23T17:18:39.232Z,32.72
2022-08-23T17:21:08.162Z,32.39
2022-08-23T17:23:41.069Z,32.15
2022-08-23T17:26:11.665Z,31.98
2022-08-23T17:28:46.271Z,31.72
2022-08-23T17:31:15.018Z,31.57
2022-08-23T17:33:43.124Z,31.28
2022-08-23T17:36:42.587Z,31.00
2022-08-23T17:39:19.448Z,30.96
2022-08-23T17:41:47.351Z,30.90
2022-08-23T17:44:17.942Z,30.78
2022-08-23T17:46:47.946Z,30.56
2022-08-23T17:49:16.111Z,30.50
2022-08-23T17:51:43.869Z,30.42
2022-08-23T17:54:16.105Z,30.27
2022-08-23T17:56:50.241Z,30.08
2022-08-23T17:59:22.251Z,29.87
2022-08-23T18:01:50.230Z,29.72
2022-08-23T18:04:20.924Z,29.45
2022-08-23T18:06:49.620Z,29.24
2022-08-23T18:09:21.992Z,29.14
2022-08-23T18:11:49.243Z,29.05
2022-08-23T18:14:18.762Z,28.71
2022-08-23T18:16:47.262Z,28.41
2022-08-23T18:19:15.833Z,28.14
2022-08-23T18:21:44.233Z,27.96
2022-08-23T18:24:11.410Z,27.84
2022-08-23T18:26:59.764Z,27.65
2022-08-23T18:29:26.305Z,27.40
2022-08-23T18:31:53.563Z,27.20
2022-08-23T18:34:21.711Z,27.01
2022-08-23T18:37:01.814Z,26.85
2022-08-23T18:39:32.475Z,26.75
2022-08-23T18:42:06.736Z,26.66
2022-08-23T18:44:33.315Z,26.58
2022-08-23T18:47:03.773Z,26.43
2022-08-23T18:49:31.565Z,26.37
2022-08-23T18:51:57.982Z,26.30
2022-08-23T18:54:24.957Z,26.23
2022-08-23T18:57:03.547Z,26.18
2022-08-23T18:59:30.497Z,26.10
2022-08-23T19:01:57.142Z,25.97
2022-08-23T19:04:23.983Z,25.90
2022-08-23T19:06:53.472Z,25.83
2022-08-23T19:09:21.081Z,25.73
2022-08-23T19:11:47.646Z,25.63
2022-08-23T19:14:14.281Z,25.52
2022-08-23T19:16:48.366Z,25.49
2022-08-23T19:19:16.124Z,25.38
2022-08-23T19:21:42.756Z,25.34
2022-08-23T19:24:09.356Z,25.31
2022-08-23T19:26:37.573Z,25.23
2022-08-23T19:29:08.550Z,25.18
2022-08-23T19:31:41.754Z,25.16
2022-08-23T19:34:09.555Z,25.16
2022-08-23T19:37:00.691Z,25.08
2022-08-23T19:39:29.023Z,25.05
2022-08-23T19:41:55.615Z,25.03
2022-08-23T19:44:22.727Z,25.03
2022-08-23T19:46:57.407Z,24.94
2022-08-23T19:49:24.138Z,24.92
2022-08-23T19:51:50.670Z,24.89
2022-08-23T19:54:17.302Z,24.87
2022-08-23T19:57:45.460Z,24.81
2022-08-23T20:00:19.317Z,24.72
2022-08-23T20:02:47.143Z,24.67
2022-08-23T20:05:13.634Z,24.65
2022-08-23T20:07:40.531Z,24.63
2022-08-23T20:10:08.685Z,24.56
2022-08-23T20:12:35.442Z,24.53
2022-08-23T20:15:02.541Z,24.49
2022-08-23T20:18:08.857Z,24.47
2022-08-23T20:20:35.397Z,24.45
2022-08-23T20:23:20.392Z,24.40
2022-08-23T20:25:46.934Z,24.37
2022-08-23T20:28:13.366Z,24.25
2022-08-23T20:30:40.269Z,24.22
2022-08-23T20:33:06.810Z,24.14
2022-08-23T20:35:33.383Z,24.01
2022-08-23T20:38:03.152Z,23.84
2022-08-23T20:40:30.016Z,23.74
2022-08-23T20:42:56.681Z,23.64
2022-08-23T20:45:23.471Z,23.56
2022-08-23T20:47:50.118Z,23.52
2022-08-23T20:50:17.202Z,23.51
2022-08-23T20:52:44.239Z,23.42
2022-08-23T20:55:13.758Z,23.42
2022-08-23T20:58:07.685Z,23.40
2022-08-23T21:00:34.234Z,23.29
2022-08-23T21:03:00.946Z,23.13
2022-08-23T21:05:27.519Z,23.12
2022-08-23T21:07:55.742Z,23.10
2022-08-23T21:10:22.628Z,23.02
2022-08-23T21:12:49.128Z,22.91
2022-08-23T21:15:15.610Z,22.85
2022-08-23T21:17:46.746Z,22.78
2022-08-23T21:20:14.329Z,22.75
2022-08-23T21:22:41.299Z,22.70
2022-08-23T21:25:08.319Z,22.57
2022-08-23T21:27:49.437Z,22.48
2022-08-23T21:30:16.317Z,22.43
2022-08-23T21:32:42.765Z,22.42
2022-08-23T21:35:09.916Z,22.32
2022-08-23T21:38:09.459Z,22.27
2022-08-23T21:40:36.129Z,22.19
2022-08-23T21:43:02.968Z,22.13
2022-08-23T21:45:29.717Z,22.08
2022-08-23T21:48:01.381Z,22.02
2022-08-23T21:50:28.713Z,22.05
2022-08-23T21:52:56.761Z,22.01
2022-08-23T21:55:34.437Z,21.92
2022-08-23T21:58:03.802Z,21.90
2022-08-23T22:00:30.659Z,21.83
2022-08-23T22:02:57.623Z,21.75
2022-08-23T22:05:26.497Z,21.71
2022-08-23T22:07:53.756Z,21.69
2022-08-23T22:10:21.818Z,21.64
2022-08-23T22:12:48.624Z,21.58
2022-08-23T22:15:16.297Z,21.53
2022-08-23T22:17:55.548Z,21.55
2022-08-23T22:20:22.023Z,21.48
2022-08-23T22:22:50.382Z,21.38
2022-08-23T22:25:17.439Z,21.35
2022-08-23T22:27:57.596Z,21.22
2022-08-23T22:30:24.919Z,21.14
2022-08-23T22:32:51.465Z,21.16
2022-08-23T22:35:18.503Z,21.08
2022-08-23T22:38:10.201Z,21.01
2022-08-23T22:40:33.987Z,21.03
2022-08-23T22:43:00.541Z,20.99
2022-08-23T22:45:30.029Z,20.99
2022-08-23T22:48:40.340Z,20.99
2022-08-23T22:51:19.424Z,21.04
2022-08-23T22:53:50.015Z,21.06
2022-08-23T23:00:42.270Z,20.91
2022-08-23T23:03:09.216Z,20.92
2022-08-23T23:05:37.690Z,20.84
2022-08-23T23:08:23.250Z,20.73
2022-08-23T23:10:49.806Z,20.60
2022-08-23T23:13:16.591Z,20.58
2022-08-23T23:15:54.726Z,20.64
2022-08-23T23:18:23.655Z,20.71
2022-08-23T23:20:50.445Z,20.72
2022-08-23T23:23:20.682Z,20.66
2022-08-23T23:25:59.834Z,20.58
2022-08-23T23:28:27.268Z,20.58
2022-08-23T23:30:55.635Z,20.56
2022-08-23T23:33:23.512Z,20.47
2022-08-23T23:35:59.671Z,20.48
2022-08-23T23:38:26.185Z,20.40
2022-08-23T23:40:52.740Z,20.34
2022-08-23T23:43:19.299Z,20.27
2022-08-23T23:46:12.046Z,20.16
2022-08-23T23:48:39.672Z,20.13
2022-08-23T23:51:08.454Z,20.07
2022-08-23T23:53:36.691Z,20.02
2022-08-23T23:56:21.862Z,19.95
2022-08-23T23:58:50.963Z,19.98
